Résultat compétition

 ESF VALBERG-BEUIL : Flèche du 12/01/2014   picture_as_pdf

COUPE DE BRONZE U12 U14 Manche Filles

 Epreuve antérieure au 1er Décembre 2018, ne comptant plus pour le classement SkiOpen.

Ouvreur Handicap Temps Réalisé Temps Base
GRAVIER YOANN 4.00 57.43 55.22
Médaille Or Vermeil Argent Bronze Fléchette
Pourcentage 15.00% 28.00% 40.00% 45.00% 50.00%
Temps 1:03.50 1:10.68 1:17.30 1:22.83 1:25.59
Clt.  expand_more Identité Code S. An Cat Temps Pts Médaille PDF Cor.
1 FIORETTI ANAIS FFS2628014 F 2000 BEN 1:00.61 9.76 Or picture_as_pdf edit
2 SASSO CARLA FFS2649053 F 2000 BEN 1:02.79 13.71 Or picture_as_pdf edit
3 FORTE JULIA FFS2643710 F 2000 BEN 1:02.99 14.07 Or picture_as_pdf edit
4 CHATTON AUDREY FFS2659773 F 2001 BEN 1:03.06 14.20 Or picture_as_pdf edit
5 MALINELLI MANON FFS2651017 F 2000 BEN 1:03.52 15.03 Vermeil picture_as_pdf edit
6 MARIN CARLA FFS2652206 F 2001 BEN 1:04.09 16.06 Vermeil picture_as_pdf edit
7 SENNES ALEXIA FFS2660309 F 2002 POU 1:04.83 17.40 Vermeil picture_as_pdf edit
8 KOREN CELIA FFS2656381 F 2001 BEN 1:06.06 19.63 Vermeil picture_as_pdf edit
9 NICOLETTA ELISE FFS2654694 F 2001 BEN 1:06.33 20.12 Vermeil picture_as_pdf edit
10 ROUX LISA FFS2660308 F 2001 BEN 1:06.68 20.75 Vermeil picture_as_pdf edit
11 GIRAUD LOMBARD ELIZA FFS2646460 F 2002 POU 1:06.99 21.31 Vermeil picture_as_pdf edit
12 MALARD DIANE FFS2651410 F 2000 BEN 1:07.22 21.73 Vermeil picture_as_pdf edit
13 CALBET CHLOE FFS2660302 F 2002 POU 1:07.32 21.91 Vermeil picture_as_pdf edit
14 BOETTI LEA FFS2640511 F 2000 BEN 1:07.48 22.20 Vermeil picture_as_pdf edit
15 MAZUEL LOLA FFS2670349 F 2003 POU 1:08.61 24.25 Vermeil picture_as_pdf edit
16 PARIS MAEVA FFS2660306 F 2002 POU 1:08.74 24.48 Vermeil picture_as_pdf edit
17 BRASSEUR RAPHAELLE FFS2652279 F 2000 BEN 1:08.98 24.92 Vermeil picture_as_pdf edit
18 DELOURME LILOU FFS2669972 F 2003 POU 1:09.45 25.77 Vermeil picture_as_pdf edit
19 CAILLE EMILIE FFS2669845 F 2002 POU 1:09.56 25.97 Vermeil picture_as_pdf edit
20 ESPECHE MATHILDE FFS2651615 F 2002 POU 1:10.58 27.82 Vermeil picture_as_pdf edit
21 ITTAH VICTORIA FFS2663467 F 2002 POU 1:10.67 27.98 Vermeil picture_as_pdf edit
22 DELOURME LLUNA FFS2669995 F 2003 POU 1:10.86 28.32 Argent picture_as_pdf edit
23 SUCHET CLOTILDE FFS2670352 F 2003 POU 1:11.01 28.59 Argent picture_as_pdf edit
24 HALLIFAX MARIE FFS2670324 F 2003 POU 1:11.48 29.45 Argent picture_as_pdf edit
25 CERDAN LOLITA FFS2665227 F 2003 POU 1:11.55 29.57 Argent picture_as_pdf edit
26 DEWAET MARGOT FFS2660299 F 2002 POU 1:11.69 29.83 Argent picture_as_pdf edit
27 BRUN LUNA FFS2663403 F 2002 POU 1:12.33 30.99 Argent picture_as_pdf edit
28 SASSI CAMILLE FFS2661635 F 2003 POU 1:12.34 31.00 Argent picture_as_pdf edit
29 STENWAGA SOPHIA FFS2670351 F 2003 POU 1:12.46 31.22 Argent picture_as_pdf edit
30 BUGHIN JEANNE FFS2652326 F 2001 BEN 1:13.00 32.20 Argent picture_as_pdf edit
31 COMPORT CHIARA FFS2651947 F 2003 POU 1:13.45 33.01 Argent picture_as_pdf edit
32 CRISTIN CANDICE FFS2651459 F 2000 BEN 1:13.52 33.14 Argent picture_as_pdf edit
33 POLITI SHANA FFS2662966 F 2003 POU 1:13.92 33.86 Argent picture_as_pdf edit
34 NEGRI GIULIA FFS2660948 F 2001 BEN 1:14.42 34.77 Argent picture_as_pdf edit
35 DI CARLO PAULINE FFS2670348 F 2003 POU 1:14.89 35.62 Argent picture_as_pdf edit
36 HEILMANN ENOLA FFS2667021 F 2003 POU 1:15.31 36.38 Argent picture_as_pdf edit
37 DAU FABIOLA FFS2670346 F 2003 POU 1:15.79 37.25 Argent picture_as_pdf edit
38 ISRAEL KIMBERLY FFS2654691 F 2001 BEN 1:15.89 37.43 Argent picture_as_pdf edit
39 PLOQUIN CHARLINE FFS2660547 F 2002 POU 1:16.09 37.79 Argent picture_as_pdf edit
40 BOSON ALICE FFS2656388 F 2001 BEN 1:16.60 38.72 Argent picture_as_pdf edit
41 BRASSEUR SOPHIE FFS2652281 F 2002 POU 1:17.15 39.71 Argent picture_as_pdf edit
42 ASTRAUDO ELISA FFS2665228 F 2003 POU 1:17.44 40.24 Bronze picture_as_pdf edit
43 DELAUNAY LOUISE FFS2663925 F 2001 BEN 1:18.48 42.12 Bronze picture_as_pdf edit
44 CHRISSOKERAKIS CLARA FFS2664645 F 2002 POU 1:18.55 42.25 Bronze picture_as_pdf edit
45 MOSTEIRO PAULINE FFS2665279 F 2001 BEN 1:19.07 43.19 Bronze picture_as_pdf edit
46 NOCENTINI DANIELA FFS2649870 F 2000 BEN 1:19.88 44.66 Bronze picture_as_pdf edit
47 LACAMBRE KIARA FFS2667891 F 2001 BEN 1:20.19 45.22 Bronze picture_as_pdf edit
48 RADET DIANE FFS2672385 F 2003 POU 1:22.89 50.11 Fléchette picture_as_pdf edit
49 DELAUNAY ALICE FFS2663924 F 2001 BEN 1:24.47 52.97 Fléchette picture_as_pdf edit
50 PLENT GAELLE FFS2658222 F 2002 POU 1:24.65 53.30 Fléchette picture_as_pdf edit
51 WENDLING CLARISSE FFS2668628 F 2002 POU 1:26.03 55.80 picture_as_pdf edit
52 VINCENT EMMA FFS2666405 F 2003 POU 1:30.92 64.65 picture_as_pdf edit
PRUD'HOMME MARGOT FFS2670325 F 2003 POU ABD picture_as_pdf edit
PENNA ORLANE FFS2652907 F 2000 BEN ABS picture_as_pdf edit
DELEUZE MARINE FFS2656379 F 2000 BEN ABS picture_as_pdf edit
BARROERO EMMA FFS2654686 F 2001 BEN ABS picture_as_pdf edit